Terminal Aerodrome Forecast
Issued by NWS Topeka, KS

Home | Current Version | Previous Version | Graphics & Text | Print | Product List | Glossary On
Versions: 1 2 3 4 5 6 7 8 9 10 11 12 13 14 15 16 17
000
FTUS43 KTOP 181300 AAA
TAFTOP
TAF AMD
KTOP 181353Z 1814/1912 13006KT 4SM -TSRA SCT025 OVC035CB
      TEMPO 1814/1815 2SM -TSRA BKN025CB
     FM181600 14006KT 5SM -SHRA BR VCTS BKN015 OVC050CB
     FM181900 16009KT P6SM BKN050
     FM190900 09003KT 4SM -TSRA BKN040CB=

USA.gov is the U.S. government's official web portal to all federal, state and local government web resources and services.